sensor_id;sensor_type;location;lat;lon;timestamp;temperature;humidity
53146;DHT22;39042;53.150;5.898;2023-01-10T05:49:06;6.40;99.90
53146;DHT22;39042;53.150;5.898;2023-01-10T05:51:31;6.30;99.90
53146;DHT22;39042;53.150;5.898;2023-01-10T05:53:57;6.30;99.90
53146;DHT22;39042;53.150;5.898;2023-01-10T05:56:23;6.20;99.90
53146;DHT22;39042;53.150;5.898;2023-01-10T05:58:49;6.10;99.90
53146;DHT22;39042;53.150;5.898;2023-01-10T06:01:15;6.00;99.90
53146;DHT22;39042;53.150;5.898;2023-01-10T06:03:41;5.90;99.90
53146;DHT22;39042;53.150;5.898;2023-01-10T06:06:07;5.80;99.90
53146;DHT22;39042;53.150;5.898;2023-01-10T06:08:32;5.80;99.90
53146;DHT22;39042;53.150;5.898;2023-01-10T06:10:59;5.60;99.90
53146;DHT22;39042;53.150;5.898;2023-01-10T06:13:24;5.50;99.90
53146;DHT22;39042;53.150;5.898;2023-01-10T06:15:50;5.50;99.90
53146;DHT22;39042;53.150;5.898;2023-01-10T06:18:15;5.40;99.90
53146;DHT22;39042;53.150;5.898;2023-01-10T06:20:41;5.40;99.90
53146;DHT22;39042;53.150;5.898;2023-01-10T06:23:07;5.30;99.90
53146;DHT22;39042;53.150;5.898;2023-01-10T06:25:34;5.20;99.90
53146;DHT22;39042;53.150;5.898;2023-01-10T06:28:01;5.10;99.90
53146;DHT22;39042;53.150;5.898;2023-01-10T06:30:27;5.10;99.90
53146;DHT22;39042;53.150;5.898;2023-01-10T06:32:53;5.10;99.90
53146;DHT22;39042;53.150;5.898;2023-01-10T06:35:18;5.10;99.90
53146;DHT22;39042;53.150;5.898;2023-01-10T06:37:44;5.10;99.90
53146;DHT22;39042;53.150;5.898;2023-01-10T06:40:10;5.10;99.90
53146;DHT22;39042;53.150;5.898;2023-01-10T06:42:36;5.00;99.90
53146;DHT22;39042;53.150;5.898;2023-01-10T06:45:01;5.00;99.90
53146;DHT22;39042;53.150;5.898;2023-01-10T06:47:29;4.90;99.90
53146;DHT22;39042;53.150;5.898;2023-01-10T06:49:54;4.90;99.90
53146;DHT22;39042;53.150;5.898;2023-01-10T06:52:20;4.80;99.90
53146;DHT22;39042;53.150;5.898;2023-01-10T06:54:46;4.90;99.90
53146;DHT22;39042;53.150;5.898;2023-01-10T06:57:11;4.90;99.90
53146;DHT22;39042;53.150;5.898;2023-01-10T06:59:37;4.90;99.90
53146;DHT22;39042;53.150;5.898;2023-01-10T07:02:02;4.80;99.90
53146;DHT22;39042;53.150;5.898;2023-01-10T07:04:28;4.90;99.90
53146;DHT22;39042;53.150;5.898;2023-01-10T07:06:54;4.80;99.90
53146;DHT22;39042;53.150;5.898;2023-01-10T07:09:19;4.90;99.90
53146;DHT22;39042;53.150;5.898;2023-01-10T07:11:45;4.80;99.90
53146;DHT22;39042;53.150;5.898;2023-01-10T07:14:11;4.90;99.90
53146;DHT22;39042;53.150;5.898;2023-01-10T07:16:36;4.90;99.90
53146;DHT22;39042;53.150;5.898;2023-01-10T07:19:02;4.90;99.90
53146;DHT22;39042;53.150;5.898;2023-01-10T07:21:28;5.10;99.90
53146;DHT22;39042;53.150;5.898;2023-01-10T07:23:53;5.30;99.90
53146;DHT22;39042;53.150;5.898;2023-01-10T07:26:19;5.50;99.90
53146;DHT22;39042;53.150;5.898;2023-01-10T07:28:46;5.70;99.90
53146;DHT22;39042;53.150;5.898;2023-01-10T07:31:15;5.80;99.90
53146;DHT22;39042;53.150;5.898;2023-01-10T07:33:41;5.90;99.90
53146;DHT22;39042;53.150;5.898;2023-01-10T07:36:07;5.90;99.90
53146;DHT22;39042;53.150;5.898;2023-01-10T07:38:34;5.90;99.90
53146;DHT22;39042;53.150;5.898;2023-01-10T07:41:02;5.90;99.90
53146;DHT22;39042;53.150;5.898;2023-01-10T07:43:28;5.80;99.90
53146;DHT22;39042;53.150;5.898;2023-01-10T07:45:56;5.80;99.90
53146;DHT22;39042;53.150;5.898;2023-01-10T07:48:28;5.70;99.90
53146;DHT22;39042;53.150;5.898;2023-01-10T07:50:54;5.60;99.90
53146;DHT22;39042;53.150;5.898;2023-01-10T07:53:20;5.60;99.90
53146;DHT22;39042;53.150;5.898;2023-01-10T07:55:45;5.60;99.90
53146;DHT22;39042;53.150;5.898;2023-01-10T07:58:11;5.60;99.90
53146;DHT22;39042;53.150;5.898;2023-01-10T08:00:37;5.50;99.90
53146;DHT22;39042;53.150;5.898;2023-01-10T08:03:02;5.50;99.90
53146;DHT22;39042;53.150;5.898;2023-01-10T08:05:28;5.50;99.90
53146;DHT22;39042;53.150;5.898;2023-01-10T08:07:54;5.50;99.90
53146;DHT22;39042;53.150;5.898;2023-01-10T08:10:24;5.40;99.90
53146;DHT22;39042;53.150;5.898;2023-01-10T08:12:50;5.40;99.90
53146;DHT22;39042;53.150;5.898;2023-01-10T08:15:16;5.40;99.90
53146;DHT22;39042;53.150;5.898;2023-01-10T08:17:41;5.30;99.90
53146;DHT22;39042;53.150;5.898;2023-01-10T08:20:07;5.30;99.90
53146;DHT22;39042;53.150;5.898;2023-01-10T08:22:33;5.30;99.90
53146;DHT22;39042;53.150;5.898;2023-01-10T08:24:59;5.30;99.90
53146;DHT22;39042;53.150;5.898;2023-01-10T08:27:25;5.30;99.90
53146;DHT22;39042;53.150;5.898;2023-01-10T08:29:50;5.30;99.90
53146;DHT22;39042;53.150;5.898;2023-01-10T08:32:16;5.30;99.90
53146;DHT22;39042;53.150;5.898;2023-01-10T08:34:42;5.30;99.90
53146;DHT22;39042;53.150;5.898;2023-01-10T08:37:10;5.30;99.90
53146;DHT22;39042;53.150;5.898;2023-01-10T08:39:36;5.30;99.90
53146;DHT22;39042;53.150;5.898;2023-01-10T08:42:03;5.30;99.90
53146;DHT22;39042;53.150;5.898;2023-01-10T08:44:29;5.40;99.90
53146;DHT22;39042;53.150;5.898;2023-01-10T08:46:55;5.40;99.90
53146;DHT22;39042;53.150;5.898;2023-01-10T08:49:21;5.40;99.90
53146;DHT22;39042;53.150;5.898;2023-01-10T08:51:47;5.40;99.90
53146;DHT22;39042;53.150;5.898;2023-01-10T08:54:12;5.40;99.90
53146;DHT22;39042;53.150;5.898;2023-01-10T08:56:38;5.50;99.90
53146;DHT22;39042;53.150;5.898;2023-01-10T08:59:05;5.60;99.90
53146;DHT22;39042;53.150;5.898;2023-01-10T09:01:30;5.60;99.90
53146;DHT22;39042;53.150;5.898;2023-01-10T09:03:56;5.70;99.90
53146;DHT22;39042;53.150;5.898;2023-01-10T09:06:22;5.80;99.90
53146;DHT22;39042;53.150;5.898;2023-01-10T09:08:48;5.80;99.90
53146;DHT22;39042;53.150;5.898;2023-01-10T09:11:14;5.90;99.90
53146;DHT22;39042;53.150;5.898;2023-01-10T09:13:40;6.00;99.90
53146;DHT22;39042;53.150;5.898;2023-01-10T09:16:06;6.10;99.90
53146;DHT22;39042;53.150;5.898;2023-01-10T09:18:32;6.20;99.90
53146;DHT22;39042;53.150;5.898;2023-01-10T09:20:58;6.20;99.90
53146;DHT22;39042;53.150;5.898;2023-01-10T09:23:24;6.30;99.90
53146;DHT22;39042;53.150;5.898;2023-01-10T09:25:51;6.40;99.90
53146;DHT22;39042;53.150;5.898;2023-01-10T09:28:17;6.50;99.90
53146;DHT22;39042;53.150;5.898;2023-01-10T09:30:43;6.60;99.90
53146;DHT22;39042;53.150;5.898;2023-01-10T09:33:09;6.70;99.90
53146;DHT22;39042;53.150;5.898;2023-01-10T09:35:36;6.80;99.90
53146;DHT22;39042;53.150;5.898;2023-01-10T09:38:02;6.80;99.90
53146;DHT22;39042;53.150;5.898;2023-01-10T09:48:00;7.10;99.90
53146;DHT22;39042;53.150;5.898;2023-01-10T09:53:10;7.10;99.90
53146;DHT22;39042;53.150;5.898;2023-01-10T09:55:37;7.20;99.90
53146;DHT22;39042;53.150;5.898;2023-01-10T09:58:04;7.20;99.90
53146;DHT22;39042;53.150;5.898;2023-01-10T10:00:35;7.20;99.90
53146;DHT22;39042;53.150;5.898;2023-01-10T10:03:03;7.30;99.90
53146;DHT22;39042;53.150;5.898;2023-01-10T10:05:30;7.30;99.90
53146;DHT22;39042;53.150;5.898;2023-01-10T10:07:57;7.30;99.90
53146;DHT22;39042;53.150;5.898;2023-01-10T10:10:40;7.30;99.90
53146;DHT22;39042;53.150;5.898;2023-01-10T10:13:21;7.40;99.90
53146;DHT22;39042;53.150;5.898;2023-01-10T10:20:49;7.40;99.90
53146;DHT22;39042;53.150;5.898;2023-01-10T10:26:03;7.50;99.90
53146;DHT22;39042;53.150;5.898;2023-01-10T10:36:41;7.60;99.90
53146;DHT22;39042;53.150;5.898;2023-01-10T10:39:11;7.60;99.90
53146;DHT22;39042;53.150;5.898;2023-01-10T10:41:40;7.60;99.90
53146;DHT22;39042;53.150;5.898;2023-01-10T10:44:15;7.60;99.90
53146;DHT22;39042;53.150;5.898;2023-01-10T10:46:43;7.60;99.90
53146;DHT22;39042;53.150;5.898;2023-01-10T10:49:14;7.60;99.90
53146;DHT22;39042;53.150;5.898;2023-01-10T10:51:46;7.60;99.90
53146;DHT22;39042;53.150;5.898;2023-01-10T10:54:13;7.60;99.90
53146;DHT22;39042;53.150;5.898;2023-01-10T10:56:40;7.60;99.90
53146;DHT22;39042;53.150;5.898;2023-01-10T10:59:07;7.60;99.90
53146;DHT22;39042;53.150;5.898;2023-01-10T11:01:32;7.60;99.90
53146;DHT22;39042;53.150;5.898;2023-01-10T11:04:08;7.60;99.90
53146;DHT22;39042;53.150;5.898;2023-01-10T11:06:36;7.70;99.90
53146;DHT22;39042;53.150;5.898;2023-01-10T11:09:04;7.70;99.90
53146;DHT22;39042;53.150;5.898;2023-01-10T11:14:00;7.70;99.90
53146;DHT22;39042;53.150;5.898;2023-01-10T11:16:28;7.70;99.90
53146;DHT22;39042;53.150;5.898;2023-01-10T11:21:38;7.70;99.90
53146;DHT22;39042;53.150;5.898;2023-01-10T11:24:12;7.70;99.90
53146;DHT22;39042;53.150;5.898;2023-01-10T11:26:43;7.70;99.90
53146;DHT22;39042;53.150;5.898;2023-01-10T11:31:37;7.70;99.90
53146;DHT22;39042;53.150;5.898;2023-01-10T11:34:04;7.70;99.90
53146;DHT22;39042;53.150;5.898;2023-01-10T11:39:15;7.70;99.90
53146;DHT22;39042;53.150;5.898;2023-01-10T11:41:42;7.70;99.90
53146;DHT22;39042;53.150;5.898;2023-01-10T11:44:24;7.60;99.90
53146;DHT22;39042;53.150;5.898;2023-01-10T11:46:52;7.60;99.90
53146;DHT22;39042;53.150;5.898;2023-01-10T11:49:26;7.60;99.90
53146;DHT22;39042;53.150;5.898;2023-01-10T11:51:55;7.60;99.90
53146;DHT22;39042;53.150;5.898;2023-01-10T11:54:26;7.60;99.90
53146;DHT22;39042;53.150;5.898;2023-01-10T11:59:21;7.50;99.90
53146;DHT22;39042;53.150;5.898;2023-01-10T12:01:51;7.50;99.90
53146;DHT22;39042;53.150;5.898;2023-01-10T12:04:18;7.40;99.90
53146;DHT22;39042;53.150;5.898;2023-01-10T12:06:46;7.40;99.90
53146;DHT22;39042;53.150;5.898;2023-01-10T12:12:01;7.40;99.90
53146;DHT22;39042;53.150;5.898;2023-01-10T12:14:27;7.30;99.90
53146;DHT22;39042;53.150;5.898;2023-01-10T12:16:59;7.30;99.90
53146;DHT22;39042;53.150;5.898;2023-01-10T12:19:25;7.30;99.90
53146;DHT22;39042;53.150;5.898;2023-01-10T12:21:51;7.30;99.90
53146;DHT22;39042;53.150;5.898;2023-01-10T12:24:20;7.20;99.90
53146;DHT22;39042;53.150;5.898;2023-01-10T12:26:46;7.20;99.90
53146;DHT22;39042;53.150;5.898;2023-01-10T12:29:16;7.20;99.90
53146;DHT22;39042;53.150;5.898;2023-01-10T12:31:43;7.20;99.90
53146;DHT22;39042;53.150;5.898;2023-01-10T12:34:12;7.10;99.90
53146;DHT22;39042;53.150;5.898;2023-01-10T12:39:22;7.10;99.90
53146;DHT22;39042;53.150;5.898;2023-01-10T12:41:56;7.10;99.90
53146;DHT22;39042;53.150;5.898;2023-01-10T12:44:45;7.10;99.90
53146;DHT22;39042;53.150;5.898;2023-01-10T12:49:48;7.00;99.90
53146;DHT22;39042;53.150;5.898;2023-01-10T12:55:16;7.00;99.90
53146;DHT22;39042;53.150;5.898;2023-01-10T12:57:43;7.00;99.90
53146;DHT22;39042;53.150;5.898;2023-01-10T13:00:29;7.00;99.90
53146;DHT22;39042;53.150;5.898;2023-01-10T13:02:56;7.00;99.90
53146;DHT22;39042;53.150;5.898;2023-01-10T13:05:24;7.00;99.90
53146;DHT22;39042;53.150;5.898;2023-01-10T13:07:50;7.00;99.90
53146;DHT22;39042;53.150;5.898;2023-01-10T13:10:18;7.00;99.90
53146;DHT22;39042;53.150;5.898;2023-01-10T13:12:47;7.00;99.90
53146;DHT22;39042;53.150;5.898;2023-01-10T13:15:32;6.90;99.90
53146;DHT22;39042;53.150;5.898;2023-01-10T13:18:00;6.90;99.90
53146;DHT22;39042;53.150;5.898;2023-01-10T13:20:28;7.00;99.90
53146;DHT22;39042;53.150;5.898;2023-01-10T13:22:55;6.90;99.90
53146;DHT22;39042;53.150;5.898;2023-01-10T13:25:33;6.80;99.90
53146;DHT22;39042;53.150;5.898;2023-01-10T13:28:18;6.80;99.90
53146;DHT22;39042;53.150;5.898;2023-01-10T13:30:50;6.80;99.90
53146;DHT22;39042;53.150;5.898;2023-01-10T13:35:42;6.70;99.90
53146;DHT22;39042;53.150;5.898;2023-01-10T13:38:18;6.70;99.90
53146;DHT22;39042;53.150;5.898;2023-01-10T13:44:11;6.70;99.90
53146;DHT22;39042;53.150;5.898;2023-01-10T13:46:38;6.70;99.90
53146;DHT22;39042;53.150;5.898;2023-01-10T13:51:36;6.70;99.90
53146;DHT22;39042;53.150;5.898;2023-01-10T13:54:24;6.70;99.90
53146;DHT22;39042;53.150;5.898;2023-01-10T13:56:48;6.70;99.90
53146;DHT22;39042;53.150;5.898;2023-01-10T14:02:15;6.70;99.90
53146;DHT22;39042;53.150;5.898;2023-01-10T14:04:58;6.70;99.90
53146;DHT22;39042;53.150;5.898;2023-01-10T14:09:57;6.70;99.90
53146;DHT22;39042;53.150;5.898;2023-01-10T14:12:33;6.70;99.90
53146;DHT22;39042;53.150;5.898;2023-01-10T14:15:07;6.70;99.90
53146;DHT22;39042;53.150;5.898;2023-01-10T14:18:06;6.70;99.90
53146;DHT22;39042;53.150;5.898;2023-01-10T14:20:30;6.70;99.90
53146;DHT22;39042;53.150;5.898;2023-01-10T14:25:41;6.70;99.90
53146;DHT22;39042;53.150;5.898;2023-01-10T14:28:16;6.70;99.90
53146;DHT22;39042;53.150;5.898;2023-01-10T14:30:42;6.70;99.90
53146;DHT22;39042;53.150;5.898;2023-01-10T14:33:14;6.70;99.90
53146;DHT22;39042;53.150;5.898;2023-01-10T14:35:42;6.70;99.90
53146;DHT22;39042;53.150;5.898;2023-01-10T14:38:17;6.70;99.90
53146;DHT22;39042;53.150;5.898;2023-01-10T14:40:44;6.70;99.90
53146;DHT22;39042;53.150;5.898;2023-01-10T14:43:12;6.60;99.90
53146;DHT22;39042;53.150;5.898;2023-01-10T14:51:07;6.60;99.90
53146;DHT22;39042;53.150;5.898;2023-01-10T14:53:33;6.70;99.90
53146;DHT22;39042;53.150;5.898;2023-01-10T14:55:59;6.60;99.90
53146;DHT22;39042;53.150;5.898;2023-01-10T14:58:25;6.60;99.90
53146;DHT22;39042;53.150;5.898;2023-01-10T15:00:51;6.60;99.90
53146;DHT22;39042;53.150;5.898;2023-01-10T15:03:18;6.60;99.90
53146;DHT22;39042;53.150;5.898;2023-01-10T15:05:45;6.70;99.90
53146;DHT22;39042;53.150;5.898;2023-01-10T15:08:16;6.60;99.90
53146;DHT22;39042;53.150;5.898;2023-01-10T15:10:42;6.70;99.90
53146;DHT22;39042;53.150;5.898;2023-01-10T15:13:09;6.70;99.90
53146;DHT22;39042;53.150;5.898;2023-01-10T15:15:37;6.70;99.90
53146;DHT22;39042;53.150;5.898;2023-01-10T15:18:05;6.70;99.90
53146;DHT22;39042;53.150;5.898;2023-01-10T15:20:36;6.70;99.90
53146;DHT22;39042;53.150;5.898;2023-01-10T15:23:05;6.70;99.90
53146;DHT22;39042;53.150;5.898;2023-01-10T15:25:39;6.70;99.90
53146;DHT22;39042;53.150;5.898;2023-01-10T15:28:15;6.60;99.90
53146;DHT22;39042;53.150;5.898;2023-01-10T15:30:44;6.60;99.90
53146;DHT22;39042;53.150;5.898;2023-01-10T15:33:17;6.60;99.90
53146;DHT22;39042;53.150;5.898;2023-01-10T15:35:43;6.60;99.90
53146;DHT22;39042;53.150;5.898;2023-01-10T15:38:14;6.60;99.90
53146;DHT22;39042;53.150;5.898;2023-01-10T15:40:40;6.60;99.90
53146;DHT22;39042;53.150;5.898;2023-01-10T15:45:42;6.50;99.90
53146;DHT22;39042;53.150;5.898;2023-01-10T15:50:55;6.50;99.90
53146;DHT22;39042;53.150;5.898;2023-01-10T15:56:11;6.50;99.90
53146;DHT22;39042;53.150;5.898;2023-01-10T15:58:38;6.50;99.90
53146;DHT22;39042;53.150;5.898;2023-01-10T16:01:07;6.50;99.90
53146;DHT22;39042;53.150;5.898;2023-01-10T16:03:37;6.40;99.90
53146;DHT22;39042;53.150;5.898;2023-01-10T16:06:04;6.50;99.90
53146;DHT22;39042;53.150;5.898;2023-01-10T16:08:34;6.50;99.90
53146;DHT22;39042;53.150;5.898;2023-01-10T16:11:13;6.50;99.90
53146;DHT22;39042;53.150;5.898;2023-01-10T16:13:41;6.40;99.90
53146;DHT22;39042;53.150;5.898;2023-01-10T16:16:07;6.40;99.90
53146;DHT22;39042;53.150;5.898;2023-01-10T16:18:37;6.40;99.90
53146;DHT22;39042;53.150;5.898;2023-01-10T16:21:02;6.40;99.90
53146;DHT22;39042;53.150;5.898;2023-01-10T16:23:31;6.40;99.90
53146;DHT22;39042;53.150;5.898;2023-01-10T16:26:01;6.30;99.90
53146;DHT22;39042;53.150;5.898;2023-01-10T16:28:27;6.40;99.90
53146;DHT22;39042;53.150;5.898;2023-01-10T16:30:55;6.40;99.90
53146;DHT22;39042;53.150;5.898;2023-01-10T16:33:22;6.40;99.90
53146;DHT22;39042;53.150;5.898;2023-01-10T16:35:58;6.40;99.90
53146;DHT22;39042;53.150;5.898;2023-01-10T16:38:24;6.40;99.90
53146;DHT22;39042;53.150;5.898;2023-01-10T16:41:00;6.40;99.90
53146;DHT22;39042;53.150;5.898;2023-01-10T16:43:47;6.40;99.90
53146;DHT22;39042;53.150;5.898;2023-01-10T16:46:12;6.40;99.90
53146;DHT22;39042;53.150;5.898;2023-01-10T16:48:38;6.40;99.90
53146;DHT22;39042;53.150;5.898;2023-01-10T16:51:04;6.40;99.90
53146;DHT22;39042;53.150;5.898;2023-01-10T16:53:30;6.40;99.90
53146;DHT22;39042;53.150;5.898;2023-01-10T16:55:56;6.40;99.90
53146;DHT22;39042;53.150;5.898;2023-01-10T16:58:21;6.50;99.90
53146;DHT22;39042;53.150;5.898;2023-01-10T17:00:48;6.40;99.90
53146;DHT22;39042;53.150;5.898;2023-01-10T17:03:18;6.40;99.90
53146;DHT22;39042;53.150;5.898;2023-01-10T17:05:44;6.40;99.90
53146;DHT22;39042;53.150;5.898;2023-01-10T17:08:31;6.40;99.90
53146;DHT22;39042;53.150;5.898;2023-01-10T17:11:00;6.40;99.90
53146;DHT22;39042;53.150;5.898;2023-01-10T17:13:26;6.40;99.90
53146;DHT22;39042;53.150;5.898;2023-01-10T17:15:53;6.40;99.90
53146;DHT22;39042;53.150;5.898;2023-01-10T17:18:19;6.40;99.90
53146;DHT22;39042;53.150;5.898;2023-01-10T17:20:44;6.40;99.90
53146;DHT22;39042;53.150;5.898;2023-01-10T17:23:10;6.40;99.90
53146;DHT22;39042;53.150;5.898;2023-01-10T17:25:36;6.40;99.90
53146;DHT22;39042;53.150;5.898;2023-01-10T17:28:02;6.40;99.90
53146;DHT22;39042;53.150;5.898;2023-01-10T17:30:28;6.40;99.90
53146;DHT22;39042;53.150;5.898;2023-01-10T17:32:53;6.40;99.90
53146;DHT22;39042;53.150;5.898;2023-01-10T17:35:19;6.40;99.90
53146;DHT22;39042;53.150;5.898;2023-01-10T17:37:49;6.40;99.90
53146;DHT22;39042;53.150;5.898;2023-01-10T17:40:15;6.40;99.90
53146;DHT22;39042;53.150;5.898;2023-01-10T17:42:41;6.40;99.90
53146;DHT22;39042;53.150;5.898;2023-01-10T17:45:07;6.40;99.90
53146;DHT22;39042;53.150;5.898;2023-01-10T17:47:32;6.40;99.90
53146;DHT22;39042;53.150;5.898;2023-01-10T17:49:58;6.40;99.90
53146;DHT22;39042;53.150;5.898;2023-01-10T17:52:24;6.40;99.90
53146;DHT22;39042;53.150;5.898;2023-01-10T17:54:49;6.40;99.90
53146;DHT22;39042;53.150;5.898;2023-01-10T17:57:15;6.40;99.90
53146;DHT22;39042;53.150;5.898;2023-01-10T17:59:41;6.50;99.90
53146;DHT22;39042;53.150;5.898;2023-01-10T18:02:09;6.50;99.90
53146;DHT22;39042;53.150;5.898;2023-01-10T18:04:38;6.50;99.90
53146;DHT22;39042;53.150;5.898;2023-01-10T18:07:04;6.50;99.90
53146;DHT22;39042;53.150;5.898;2023-01-10T18:09:30;6.50;99.90
53146;DHT22;39042;53.150;5.898;2023-01-10T18:11:55;6.50;99.90
53146;DHT22;39042;53.150;5.898;2023-01-10T18:14:21;6.50;99.90
53146;DHT22;39042;53.150;5.898;2023-01-10T18:17:06;6.50;99.90
53146;DHT22;39042;53.150;5.898;2023-01-10T18:29:38;6.40;99.90
53146;DHT22;39042;53.150;5.898;2023-01-10T18:32:31;6.50;99.90
53146;DHT22;39042;53.150;5.898;2023-01-10T18:35:06;6.50;99.90
53146;DHT22;39042;53.150;5.898;2023-01-10T18:37:58;6.50;99.90
53146;DHT22;39042;53.150;5.898;2023-01-10T18:40:31;6.50;99.90
53146;DHT22;39042;53.150;5.898;2023-01-10T18:43:23;6.50;99.90
53146;DHT22;39042;53.150;5.898;2023-01-10T18:46:02;6.50;99.90
53146;DHT22;39042;53.150;5.898;2023-01-10T18:48:55;6.50;99.90
53146;DHT22;39042;53.150;5.898;2023-01-10T18:51:28;6.50;99.90
53146;DHT22;39042;53.150;5.898;2023-01-10T18:54:20;6.60;99.90
53146;DHT22;39042;53.150;5.898;2023-01-10T18:56:57;6.60;99.90
53146;DHT22;39042;53.150;5.898;2023-01-10T18:59:50;6.60;99.90
53146;DHT22;39042;53.150;5.898;2023-01-10T19:02:23;6.60;99.90
53146;DHT22;39042;53.150;5.898;2023-01-10T19:05:15;6.60;99.90
53146;DHT22;39042;53.150;5.898;2023-01-10T19:07:48;6.70;99.90
53146;DHT22;39042;53.150;5.898;2023-01-10T19:10:41;6.70;99.90
53146;DHT22;39042;53.150;5.898;2023-01-10T19:13:14;6.70;99.90
53146;DHT22;39042;53.150;5.898;2023-01-10T19:16:14;6.70;99.90
53146;DHT22;39042;53.150;5.898;2023-01-10T19:18:48;6.70;99.90
53146;DHT22;39042;53.150;5.898;2023-01-10T19:21:40;6.80;99.90
53146;DHT22;39042;53.150;5.898;2023-01-10T19:24:20;6.80;99.90
53146;DHT22;39042;53.150;5.898;2023-01-10T19:27:12;6.80;99.90
53146;DHT22;39042;53.150;5.898;2023-01-10T19:30:06;6.80;99.90
53146;DHT22;39042;53.150;5.898;2023-01-10T19:32:38;6.90;99.90
53146;DHT22;39042;53.150;5.898;2023-01-10T19:35:30;6.90;99.90
53146;DHT22;39042;53.150;5.898;2023-01-10T19:38:07;6.90;99.90
53146;DHT22;39042;53.150;5.898;2023-01-10T19:41:00;6.90;99.90
53146;DHT22;39042;53.150;5.898;2023-01-10T19:43:34;7.00;99.90
53146;DHT22;39042;53.150;5.898;2023-01-10T19:46:28;7.00;99.90
53146;DHT22;39042;53.150;5.898;2023-01-10T19:49:05;7.00;99.90
53146;DHT22;39042;53.150;5.898;2023-01-10T19:51:57;7.10;99.90
53146;DHT22;39042;53.150;5.898;2023-01-10T19:54:30;7.10;99.90
53146;DHT22;39042;53.150;5.898;2023-01-10T19:57:23;7.10;99.90
53146;DHT22;39042;53.150;5.898;2023-01-10T19:59:56;7.10;99.90
53146;DHT22;39042;53.150;5.898;2023-01-10T20:02:49;7.20;99.90
53146;DHT22;39042;53.150;5.898;2023-01-10T20:05:22;7.20;99.90
53146;DHT22;39042;53.150;5.898;2023-01-10T20:08:15;7.20;99.90
53146;DHT22;39042;53.150;5.898;2023-01-10T20:10:48;7.20;99.90
53146;DHT22;39042;53.150;5.898;2023-01-10T20:13:42;7.20;99.90
53146;DHT22;39042;53.150;5.898;2023-01-10T20:16:21;7.30;99.90
53146;DHT22;39042;53.150;5.898;2023-01-10T20:19:15;7.30;99.90
53146;DHT22;39042;53.150;5.898;2023-01-10T20:21:49;7.30;99.90
53146;DHT22;39042;53.150;5.898;2023-01-10T20:24:43;7.40;99.90
53146;DHT22;39042;53.150;5.898;2023-01-10T20:27:16;7.40;99.90
53146;DHT22;39042;53.150;5.898;2023-01-10T20:30:09;7.30;99.90
53146;DHT22;39042;53.150;5.898;2023-01-10T20:32:44;7.50;99.90
53146;DHT22;39042;53.150;5.898;2023-01-10T20:35:36;7.50;99.90
53146;DHT22;39042;53.150;5.898;2023-01-10T20:38:12;7.50;99.90
53146;DHT22;39042;53.150;5.898;2023-01-10T20:41:08;7.60;99.90
53146;DHT22;39042;53.150;5.898;2023-01-10T20:43:41;7.60;99.90
53146;DHT22;39042;53.150;5.898;2023-01-10T20:46:35;7.60;99.90
53146;DHT22;39042;53.150;5.898;2023-01-10T20:49:08;7.60;99.90
53146;DHT22;39042;53.150;5.898;2023-01-10T20:52:02;7.60;99.90
53146;DHT22;39042;53.150;5.898;2023-01-10T20:54:35;7.70;99.90
53146;DHT22;39042;53.150;5.898;2023-01-10T20:57:27;7.70;99.90
53146;DHT22;39042;53.150;5.898;2023-01-10T21:00:00;7.70;99.90
53146;DHT22;39042;53.150;5.898;2023-01-10T21:02:52;7.80;99.90
53146;DHT22;39042;53.150;5.898;2023-01-10T21:05:25;7.90;99.90
53146;DHT22;39042;53.150;5.898;2023-01-10T21:08:20;7.90;99.90
53146;DHT22;39042;53.150;5.898;2023-01-10T21:10:55;7.90;99.90
53146;DHT22;39042;53.150;5.898;2023-01-10T21:13:48;8.00;99.90
53146;DHT22;39042;53.150;5.898;2023-01-10T21:16:20;8.10;99.90
53146;DHT22;39042;53.150;5.898;2023-01-10T21:19:14;8.10;99.90
53146;DHT22;39042;53.150;5.898;2023-01-10T21:21:47;8.20;99.90
53146;DHT22;39042;53.150;5.898;2023-01-10T21:24:39;8.20;99.90
53146;DHT22;39042;53.150;5.898;2023-01-10T21:27:28;8.30;99.90
53146;DHT22;39042;53.150;5.898;2023-01-10T21:30:21;8.30;99.90
53146;DHT22;39042;53.150;5.898;2023-01-10T21:32:58;8.30;99.90
53146;DHT22;39042;53.150;5.898;2023-01-10T21:35:51;8.30;99.90
53146;DHT22;39042;53.150;5.898;2023-01-10T21:38:23;8.40;99.90
53146;DHT22;39042;53.150;5.898;2023-01-10T21:41:18;8.30;99.90
53146;DHT22;39042;53.150;5.898;2023-01-10T21:44:10;8.40;99.90
53146;DHT22;39042;53.150;5.898;2023-01-10T21:47:06;8.40;99.90
53146;DHT22;39042;53.150;5.898;2023-01-10T21:49:41;8.50;99.90
53146;DHT22;39042;53.150;5.898;2023-01-10T21:52:33;8.50;99.90
53146;DHT22;39042;53.150;5.898;2023-01-10T21:55:06;8.50;99.90
53146;DHT22;39042;53.150;5.898;2023-01-10T21:57:58;8.50;99.90
53146;DHT22;39042;53.150;5.898;2023-01-10T22:00:31;8.60;99.90
53146;DHT22;39042;53.150;5.898;2023-01-10T22:03:23;8.60;99.90
53146;DHT22;39042;53.150;5.898;2023-01-10T22:05:57;8.70;99.90
53146;DHT22;39042;53.150;5.898;2023-01-10T22:08:51;8.70;99.90
53146;DHT22;39042;53.150;5.898;2023-01-10T22:11:24;8.70;99.90
53146;DHT22;39042;53.150;5.898;2023-01-10T22:14:19;8.80;99.90
53146;DHT22;39042;53.150;5.898;2023-01-10T22:16:51;8.80;99.90
53146;DHT22;39042;53.150;5.898;2023-01-10T22:19:43;8.80;99.90
53146;DHT22;39042;53.150;5.898;2023-01-10T22:22:16;8.80;99.90
53146;DHT22;39042;53.150;5.898;2023-01-10T22:25:08;8.80;99.90
53146;DHT22;39042;53.150;5.898;2023-01-10T22:27:41;8.90;99.90
53146;DHT22;39042;53.150;5.898;2023-01-10T22:30:33;8.90;99.90
53146;DHT22;39042;53.150;5.898;2023-01-10T22:33:06;8.90;99.90
53146;DHT22;39042;53.150;5.898;2023-01-10T22:36:05;9.00;99.90
53146;DHT22;39042;53.150;5.898;2023-01-10T22:38:39;9.00;99.90
53146;DHT22;39042;53.150;5.898;2023-01-10T22:41:32;9.00;99.90
53146;DHT22;39042;53.150;5.898;2023-01-10T22:44:04;9.10;99.90
53146;DHT22;39042;53.150;5.898;2023-01-10T22:46:56;9.10;99.90
53146;DHT22;39042;53.150;5.898;2023-01-10T22:49:29;9.10;99.90
53146;DHT22;39042;53.150;5.898;2023-01-10T22:52:21;9.20;99.90
53146;DHT22;39042;53.150;5.898;2023-01-10T22:54:54;9.20;99.90
53146;DHT22;39042;53.150;5.898;2023-01-10T22:57:46;9.20;99.90
53146;DHT22;39042;53.150;5.898;2023-01-10T23:00:19;9.20;99.90
53146;DHT22;39042;53.150;5.898;2023-01-10T23:03:11;9.30;99.90
53146;DHT22;39042;53.150;5.898;2023-01-10T23:05:44;9.30;99.90
53146;DHT22;39042;53.150;5.898;2023-01-10T23:08:37;9.30;99.90
53146;DHT22;39042;53.150;5.898;2023-01-10T23:11:09;9.30;99.90
53146;DHT22;39042;53.150;5.898;2023-01-10T23:14:03;9.30;99.90
53146;DHT22;39042;53.150;5.898;2023-01-10T23:16:36;9.40;99.90
53146;DHT22;39042;53.150;5.898;2023-01-10T23:19:28;9.40;99.90
53146;DHT22;39042;53.150;5.898;2023-01-10T23:22:01;9.40;99.90
53146;DHT22;39042;53.150;5.898;2023-01-10T23:24:53;9.40;99.90
53146;DHT22;39042;53.150;5.898;2023-01-10T23:27:26;9.40;99.90
53146;DHT22;39042;53.150;5.898;2023-01-10T23:30:18;9.40;99.90
53146;DHT22;39042;53.150;5.898;2023-01-10T23:32:53;9.50;99.90
53146;DHT22;39042;53.150;5.898;2023-01-10T23:35:45;9.50;99.90
53146;DHT22;39042;53.150;5.898;2023-01-10T23:38:18;9.50;99.90